createdAt,value
2023-09-17T00:02:24.846Z,20.47
2023-09-17T00:04:52.553Z,19.92
2023-09-17T00:07:20.082Z,20.24
2023-09-17T00:09:47.660Z,20.43
2023-09-17T00:12:15.276Z,20.50
2023-09-17T00:14:42.898Z,19.83
2023-09-17T00:17:10.668Z,20.50
2023-09-17T00:19:38.399Z,20.51
2023-09-17T00:22:10.111Z,20.44
2023-09-17T00:24:37.707Z,20.12
2023-09-17T00:27:06.080Z,20.19
2023-09-17T00:29:33.672Z,20.51
2023-09-17T00:32:01.222Z,20.53
2023-09-17T00:34:28.855Z,20.62
2023-09-17T00:36:57.788Z,20.00
2023-09-17T00:39:25.352Z,20.38
2023-09-17T00:41:53.793Z,20.49
2023-09-17T00:44:21.398Z,20.42
2023-09-17T00:46:51.071Z,20.63
2023-09-17T00:49:19.305Z,20.28
2023-09-17T00:51:47.191Z,20.58
2023-09-17T00:54:15.491Z,20.39
2023-09-17T00:56:43.154Z,20.65
2023-09-17T00:59:11.813Z,20.59
2023-09-17T01:01:39.518Z,20.66
2023-09-17T01:04:08.914Z,20.69
2023-09-17T01:06:39.434Z,20.70
2023-09-17T01:09:09.031Z,20.50
2023-09-17T01:11:37.094Z,20.13
2023-09-17T01:14:13.415Z,20.46
2023-09-17T01:16:42.717Z,20.65
2023-09-17T01:19:25.394Z,20.02
2023-09-17T01:22:03.108Z,20.34
2023-09-17T01:24:41.903Z,20.03
2023-09-17T01:27:12.229Z,19.81
2023-09-17T01:29:42.573Z,20.02
2023-09-17T01:32:14.622Z,20.23
2023-09-17T01:34:44.043Z,20.59
2023-09-17T01:37:17.689Z,20.87
2023-09-17T01:39:56.317Z,20.88
2023-09-17T01:42:25.913Z,20.77
2023-09-17T01:44:58.546Z,20.81
2023-09-17T01:47:28.458Z,20.88
2023-09-17T01:49:58.561Z,20.78
2023-09-17T01:52:28.014Z,20.44
2023-09-17T01:54:55.748Z,19.91
2023-09-17T01:57:23.309Z,20.35
2023-09-17T01:59:51.054Z,19.79
2023-09-17T02:02:18.982Z,19.97
2023-09-17T02:04:47.658Z,20.09
2023-09-17T02:07:16.745Z,20.35
2023-09-17T02:09:45.255Z,20.44
2023-09-17T02:12:12.785Z,20.46
2023-09-17T02:14:40.826Z,20.35
2023-09-17T02:17:12.536Z,20.09
2023-09-17T02:19:43.378Z,20.11
2023-09-17T02:22:11.104Z,20.08
2023-09-17T02:24:38.724Z,20.42
2023-09-17T02:27:06.260Z,20.49
2023-09-17T02:29:33.874Z,20.44
2023-09-17T02:32:01.725Z,20.45
2023-09-17T02:34:29.314Z,19.69
2023-09-17T02:36:56.831Z,19.45
2023-09-17T02:39:24.368Z,19.64
2023-09-17T02:41:51.874Z,19.87
2023-09-17T02:44:19.993Z,20.16
2023-09-17T02:46:47.702Z,19.93
2023-09-17T02:49:15.531Z,19.87
2023-09-17T02:51:43.156Z,20.19
2023-09-17T02:54:11.729Z,20.50
2023-09-17T02:56:39.246Z,20.30
2023-09-17T02:59:06.849Z,20.21
2023-09-17T03:01:34.546Z,20.32
2023-09-17T03:04:06.848Z,20.42
2023-09-17T03:06:34.864Z,20.14
2023-09-17T03:09:02.955Z,19.82
2023-09-17T03:11:30.770Z,19.82
2023-09-17T03:14:02.107Z,19.60
2023-09-17T03:16:31.261Z,20.04
2023-09-17T03:18:58.793Z,19.84
2023-09-17T03:21:26.761Z,19.15
2023-09-17T03:23:54.402Z,19.70
2023-09-17T03:26:23.216Z,19.78
2023-09-17T03:28:51.024Z,19.33
2023-09-17T03:31:18.733Z,19.77
2023-09-17T03:33:47.322Z,19.82
2023-09-17T03:36:16.463Z,19.92
2023-09-17T03:38:44.104Z,19.92
2023-09-17T03:41:11.972Z,19.81
2023-09-17T03:43:40.205Z,19.74
2023-09-17T03:46:07.916Z,19.83
2023-09-17T03:48:35.450Z,19.74
2023-09-17T03:51:05.855Z,19.90
2023-09-17T03:53:34.120Z,19.96
2023-09-17T03:56:01.945Z,19.78
2023-09-17T03:58:31.348Z,19.77
2023-09-17T04:00:58.882Z,19.64
2023-09-17T04:03:26.762Z,19.70
2023-09-17T04:05:54.961Z,19.23
2023-09-17T04:08:23.241Z,19.36
2023-09-17T04:10:56.407Z,19.45
2023-09-17T04:13:24.107Z,19.39
2023-09-17T04:15:51.928Z,18.95
2023-09-17T04:18:19.419Z,18.28
2023-09-17T04:20:48.850Z,18.90
2023-09-17T04:23:17.249Z,19.54
2023-09-17T04:25:45.391Z,19.74
2023-09-17T04:28:13.276Z,19.64
2023-09-17T04:30:40.980Z,19.32
2023-09-17T04:33:09.154Z,18.99
2023-09-17T04:35:37.810Z,19.54
2023-09-17T04:38:05.534Z,19.54
2023-09-17T04:40:33.796Z,19.80
2023-09-17T04:43:05.480Z,19.43
2023-09-17T04:45:36.613Z,19.34
2023-09-17T04:48:11.644Z,19.46
2023-09-17T04:50:46.344Z,19.73
2023-09-17T04:53:16.030Z,19.60
2023-09-17T04:55:45.718Z,19.58
2023-09-17T04:58:15.519Z,19.27
2023-09-17T05:00:45.355Z,19.64
2023-09-17T05:03:13.148Z,20.13
2023-09-17T05:05:41.682Z,20.68
2023-09-17T05:08:09.424Z,21.01
2023-09-17T05:10:37.212Z,20.79
2023-09-17T05:13:06.916Z,20.73
2023-09-17T05:15:35.658Z,21.27
2023-09-17T05:18:10.777Z,21.44
2023-09-17T05:20:45.190Z,21.08
2023-09-17T05:23:13.030Z,21.16
2023-09-17T05:25:41.443Z,21.90
2023-09-17T05:28:10.617Z,22.16
2023-09-17T05:30:41.690Z,22.22
2023-09-17T05:33:10.346Z,22.70
2023-09-17T05:35:42.133Z,23.53
2023-09-17T05:38:10.034Z,23.84
2023-09-17T05:40:37.947Z,23.50
2023-09-17T05:43:05.740Z,23.91
2023-09-17T05:45:34.413Z,23.53
2023-09-17T05:48:02.830Z,24.38
2023-09-17T05:50:30.987Z,24.29
2023-09-17T05:52:58.649Z,24.91
2023-09-17T05:55:26.736Z,25.25
2023-09-17T05:57:56.336Z,25.41
2023-09-17T06:00:24.252Z,25.66
2023-09-17T06:02:51.751Z,25.86
2023-09-17T06:05:19.828Z,25.81
2023-09-17T06:07:47.387Z,26.13
2023-09-17T06:10:17.105Z,26.67
2023-09-17T06:12:44.652Z,26.24
2023-09-17T06:15:13.105Z,26.38
2023-09-17T06:17:44.850Z,27.29
2023-09-17T06:20:12.500Z,27.48
2023-09-17T06:22:40.078Z,27.62
2023-09-17T06:25:07.978Z,27.79
2023-09-17T06:27:36.363Z,27.99
2023-09-17T06:30:04.863Z,27.50
2023-09-17T06:32:33.274Z,27.44
2023-09-17T06:35:01.048Z,27.74
2023-09-17T06:37:29.377Z,27.71
2023-09-17T06:39:56.937Z,28.00
2023-09-17T06:42:24.515Z,27.56
2023-09-17T06:44:51.987Z,27.93
2023-09-17T06:47:19.737Z,28.19
2023-09-17T06:49:47.334Z,27.99
2023-09-17T06:52:14.935Z,27.58
2023-09-17T06:54:45.662Z,28.43
2023-09-17T06:57:13.124Z,28.76
2023-09-17T06:59:40.613Z,28.45
2023-09-17T07:02:08.192Z,28.55
2023-09-17T07:04:35.801Z,28.32
2023-09-17T07:07:03.507Z,28.29
2023-09-17T07:09:32.970Z,28.95
2023-09-17T07:12:00.508Z,28.34
2023-09-17T07:14:28.077Z,27.93
2023-09-17T07:16:55.847Z,28.71
2023-09-17T07:19:23.664Z,29.69
2023-09-17T07:21:51.305Z,29.62
2023-09-17T07:24:18.825Z,30.08
2023-09-17T07:26:46.332Z,30.02
2023-09-17T07:29:13.881Z,30.52
2023-09-17T07:31:42.775Z,30.61
2023-09-17T07:34:10.275Z,30.20
2023-09-17T07:36:37.768Z,29.65
2023-09-17T07:39:05.449Z,30.42
2023-09-17T07:41:32.973Z,30.80
2023-09-17T07:44:00.656Z,30.35
2023-09-17T07:46:28.455Z,30.61
2023-09-17T07:48:56.041Z,31.75
2023-09-17T07:51:23.557Z,31.99
2023-09-17T07:53:51.226Z,32.38
2023-09-17T07:56:19.727Z,32.36
2023-09-17T07:58:48.404Z,31.52
2023-09-17T08:01:16.207Z,32.65
2023-09-17T08:03:43.804Z,32.02
2023-09-17T08:06:12.593Z,32.38
2023-09-17T08:08:40.161Z,32.99
2023-09-17T08:11:08.273Z,33.61
2023-09-17T08:13:35.942Z,33.43
2023-09-17T08:16:03.795Z,33.96
2023-09-17T08:18:32.150Z,33.01
2023-09-17T08:20:59.830Z,32.99
2023-09-17T08:23:27.852Z,32.97
2023-09-17T08:26:15.328Z,34.65
2023-09-17T08:29:02.979Z,35.38
2023-09-17T08:31:50.463Z,36.05
2023-09-17T08:34:38.155Z,34.40
2023-09-17T08:37:05.811Z,34.15
2023-09-17T08:39:33.764Z,33.87
2023-09-17T08:42:02.094Z,33.18
2023-09-17T08:44:34.733Z,33.66
2023-09-17T08:47:02.398Z,33.47
2023-09-17T08:49:30.258Z,33.79
2023-09-17T08:52:00.460Z,34.59
2023-09-17T08:54:34.884Z,35.72
2023-09-17T08:57:05.038Z,36.05
2023-09-17T08:59:39.306Z,36.34
2023-09-17T09:02:32.885Z,37.03
2023-09-17T09:05:02.302Z,35.57
2023-09-17T09:07:30.526Z,34.36
2023-09-17T09:09:58.600Z,35.90
2023-09-17T09:12:27.699Z,37.02
2023-09-17T09:14:56.298Z,34.78
2023-09-17T09:17:23.919Z,36.11
2023-09-17T09:19:52.006Z,35.41
2023-09-17T09:22:19.509Z,36.49
2023-09-17T09:24:50.435Z,34.66
2023-09-17T09:27:18.215Z,37.76
2023-09-17T09:29:45.838Z,37.76
2023-09-17T09:32:14.123Z,38.15
2023-09-17T09:34:42.894Z,37.18
2023-09-17T09:37:11.197Z,38.46
2023-09-17T09:39:39.672Z,35.41
2023-09-17T09:42:09.727Z,36.04
2023-09-17T09:44:37.549Z,37.62
2023-09-17T09:47:05.867Z,36.85
2023-09-17T09:49:44.098Z,37.45
2023-09-17T09:52:13.293Z,39.26
2023-09-17T09:54:45.291Z,40.83
2023-09-17T09:57:14.421Z,37.64
2023-09-17T09:59:49.488Z,36.74
2023-09-17T10:02:21.628Z,38.46
2023-09-17T10:04:49.821Z,38.64
2023-09-17T10:07:18.647Z,38.52
2023-09-17T10:09:47.480Z,39.83
2023-09-17T10:12:15.619Z,39.49
2023-09-17T10:14:43.808Z,39.67
2023-09-17T10:17:12.386Z,38.23
2023-09-17T10:19:41.818Z,40.06
2023-09-17T10:22:11.137Z,38.10
2023-09-17T10:24:40.091Z,39.45
2023-09-17T10:27:09.035Z,40.02
2023-09-17T10:29:39.418Z,39.08
2023-09-17T10:32:11.026Z,40.04
2023-09-17T10:34:40.577Z,41.80
2023-09-17T10:37:09.018Z,37.84
2023-09-17T10:39:37.804Z,40.14
2023-09-17T10:42:07.585Z,38.43
2023-09-17T10:44:38.011Z,38.24
2023-09-17T10:47:10.923Z,41.26
2023-09-17T10:49:40.091Z,39.78
2023-09-17T10:52:09.128Z,40.97
2023-09-17T10:54:37.040Z,40.45
2023-09-17T10:57:28.270Z,41.29
2023-09-17T10:59:58.930Z,42.34
2023-09-17T11:02:30.186Z,41.92
2023-09-17T11:04:58.835Z,37.83
2023-09-17T11:07:27.257Z,40.20
2023-09-17T11:09:56.925Z,34.89
2023-09-17T11:12:25.172Z,38.50
2023-09-17T11:14:52.910Z,41.44
2023-09-17T11:17:30.773Z,41.07
2023-09-17T11:19:58.973Z,39.76
2023-09-17T11:22:31.064Z,38.06
2023-09-17T11:24:58.703Z,39.36
2023-09-17T11:27:44.781Z,36.70
2023-09-17T11:30:27.559Z,38.08
2023-09-17T11:32:55.770Z,39.53
2023-09-17T11:35:25.926Z,38.60
2023-09-17T11:37:53.730Z,35.94
2023-09-17T11:40:21.424Z,35.79
2023-09-17T11:42:49.173Z,35.11
2023-09-17T11:45:17.221Z,36.94
2023-09-17T11:47:45.590Z,36.52
2023-09-17T11:50:14.918Z,35.29
2023-09-17T11:52:43.208Z,36.73
2023-09-17T11:55:23.269Z,40.87
2023-09-17T11:57:51.040Z,41.73
2023-09-17T12:00:29.715Z,43.09
2023-09-17T12:02:57.475Z,44.85
2023-09-17T12:05:25.093Z,41.50
2023-09-17T12:07:55.618Z,42.69
2023-09-17T12:10:30.611Z,43.94
2023-09-17T12:13:17.489Z,39.29
2023-09-17T12:15:46.911Z,40.96
2023-09-17T12:18:14.648Z,41.01
2023-09-17T12:21:00.326Z,42.69
2023-09-17T12:24:03.963Z,42.31
2023-09-17T12:27:10.326Z,42.92
2023-09-17T12:29:47.519Z,43.62
2023-09-17T12:32:18.158Z,43.61
2023-09-17T12:34:45.787Z,42.07
2023-09-17T12:37:13.562Z,40.92
2023-09-17T12:39:44.397Z,41.97
2023-09-17T12:42:12.000Z,39.13
2023-09-17T12:44:40.156Z,36.65
2023-09-17T12:47:08.316Z,36.59
2023-09-17T12:49:36.401Z,35.60
2023-09-17T12:52:05.022Z,36.11
2023-09-17T12:54:32.942Z,36.93
2023-09-17T12:57:01.060Z,40.09
2023-09-17T12:59:33.032Z,41.49
2023-09-17T13:02:04.754Z,42.01
2023-09-17T13:04:45.390Z,41.96
2023-09-17T13:07:18.279Z,37.84
2023-09-17T13:09:46.744Z,39.56
2023-09-17T13:12:19.285Z,41.21
2023-09-17T13:14:49.312Z,40.47
2023-09-17T13:17:17.499Z,37.48
2023-09-17T13:19:45.284Z,35.80
2023-09-17T13:22:15.614Z,36.64
2023-09-17T13:24:46.196Z,40.62
2023-09-17T13:27:18.423Z,41.65
2023-09-17T13:29:50.876Z,41.60
2023-09-17T13:32:20.018Z,40.48
2023-09-17T13:34:48.532Z,40.71
2023-09-17T13:37:17.601Z,42.36
2023-09-17T13:39:47.722Z,43.42
2023-09-17T13:42:15.367Z,41.63
2023-09-17T13:44:42.891Z,41.85
2023-09-17T13:47:12.926Z,38.87
2023-09-17T13:49:44.084Z,40.34
2023-09-17T13:52:12.103Z,42.86
2023-09-17T13:54:40.397Z,41.93
2023-09-17T13:57:08.259Z,41.82
2023-09-17T13:59:36.042Z,42.20
2023-09-17T14:02:05.126Z,39.01
2023-09-17T14:04:34.275Z,38.30
2023-09-17T14:07:02.666Z,39.33
2023-09-17T14:09:30.374Z,38.56
2023-09-17T14:11:58.138Z,36.64
2023-09-17T14:14:25.792Z,36.60
2023-09-17T14:16:53.414Z,36.44
2023-09-17T14:19:20.977Z,34.91
2023-09-17T14:21:48.950Z,35.52
2023-09-17T14:24:16.920Z,35.85
2023-09-17T14:26:44.999Z,35.18
2023-09-17T14:29:13.017Z,33.86
2023-09-17T14:31:44.124Z,35.00
2023-09-17T14:34:12.410Z,34.48
2023-09-17T14:36:40.381Z,34.89
2023-09-17T14:39:10.729Z,35.29
2023-09-17T14:41:40.184Z,36.30
2023-09-17T14:44:08.459Z,35.05
2023-09-17T14:46:39.628Z,36.23
2023-09-17T14:49:07.959Z,35.12
2023-09-17T14:51:35.800Z,36.63
2023-09-17T14:54:04.921Z,36.06
2023-09-17T14:56:32.564Z,36.36
2023-09-17T14:59:00.145Z,37.59
2023-09-17T15:01:56.808Z,35.72
2023-09-17T15:04:15.986Z,37.09
2023-09-17T15:06:43.580Z,36.28
2023-09-17T15:09:11.394Z,35.48
2023-09-17T15:11:38.903Z,33.68
2023-09-17T15:14:06.681Z,33.74
2023-09-17T15:16:34.517Z,34.32
2023-09-17T15:19:02.370Z,33.66
2023-09-17T15:21:29.961Z,33.12
2023-09-17T15:23:57.502Z,32.14
2023-09-17T15:26:26.638Z,32.99
2023-09-17T15:28:54.505Z,32.67
2023-09-17T15:31:22.729Z,32.56
2023-09-17T15:33:50.679Z,32.36
2023-09-17T15:36:18.513Z,32.51
2023-09-17T15:38:46.294Z,31.74
2023-09-17T15:41:13.902Z,31.71
2023-09-17T15:43:42.516Z,32.57
2023-09-17T15:46:10.421Z,31.77
2023-09-17T15:48:38.052Z,31.59
2023-09-17T15:51:06.267Z,31.41
2023-09-17T15:53:36.750Z,32.53
2023-09-17T15:56:04.616Z,32.65
2023-09-17T15:58:32.199Z,31.48
2023-09-17T16:00:59.811Z,32.14
2023-09-17T16:03:27.663Z,32.79
2023-09-17T16:05:55.747Z,32.17
2023-09-17T16:08:23.690Z,32.02
2023-09-17T16:10:51.414Z,32.46
2023-09-17T16:13:21.769Z,32.60
2023-09-17T16:15:52.381Z,32.21
2023-09-17T16:18:20.062Z,31.84
2023-09-17T16:20:48.717Z,32.05
2023-09-17T16:23:17.410Z,32.50
2023-09-17T16:25:45.082Z,32.64
2023-09-17T16:28:12.774Z,32.55
2023-09-17T16:30:40.509Z,32.44
2023-09-17T16:33:08.372Z,32.14
2023-09-17T16:35:36.203Z,32.06
2023-09-17T16:38:04.048Z,31.88
2023-09-17T16:40:33.819Z,31.65
2023-09-17T16:43:09.014Z,31.39
2023-09-17T16:45:38.553Z,30.97
2023-09-17T16:48:06.774Z,30.72
2023-09-17T16:50:34.754Z,30.56
2023-09-17T16:53:02.470Z,30.54
2023-09-17T16:55:31.888Z,30.45
2023-09-17T16:57:59.476Z,30.09
2023-09-17T17:00:32.655Z,29.95
2023-09-17T17:03:01.405Z,29.50
2023-09-17T17:05:29.062Z,29.37
2023-09-17T17:07:58.346Z,29.40
2023-09-17T17:10:26.881Z,29.20
2023-09-17T17:12:54.782Z,29.11
2023-09-17T17:15:22.483Z,28.90
2023-09-17T17:17:50.156Z,28.73
2023-09-17T17:20:17.785Z,28.08
2023-09-17T17:22:49.359Z,28.01
2023-09-17T17:25:17.447Z,27.88
2023-09-17T17:27:47.249Z,27.98
2023-09-17T17:30:14.934Z,27.79
2023-09-17T17:32:43.760Z,27.61
2023-09-17T17:35:12.643Z,27.42
2023-09-17T17:37:40.756Z,27.27
2023-09-17T17:40:13.096Z,27.71
2023-09-17T17:42:40.690Z,27.50
2023-09-17T17:45:08.793Z,27.53
2023-09-17T17:47:36.817Z,27.25
2023-09-17T17:50:05.130Z,27.08
2023-09-17T17:52:33.631Z,27.38
2023-09-17T17:55:01.642Z,27.16
2023-09-17T17:57:29.678Z,27.06
2023-09-17T17:59:57.964Z,27.01
2023-09-17T18:02:25.717Z,27.04
2023-09-17T18:04:53.473Z,26.35
2023-09-17T18:07:22.307Z,26.55
2023-09-17T18:09:49.913Z,25.39
2023-09-17T18:12:17.653Z,26.43
2023-09-17T18:14:46.086Z,26.38
2023-09-17T18:17:14.042Z,26.10
2023-09-17T18:19:41.700Z,26.16
2023-09-17T18:22:09.500Z,26.13
2023-09-17T18:24:38.688Z,26.31
2023-09-17T18:27:06.559Z,26.27
2023-09-17T18:29:34.374Z,26.67
2023-09-17T18:32:02.366Z,26.32
2023-09-17T18:34:30.692Z,26.44
2023-09-17T18:36:58.384Z,25.76
2023-09-17T18:39:29.847Z,25.26
2023-09-17T18:42:00.601Z,25.76
2023-09-17T18:44:30.148Z,25.83
2023-09-17T18:47:00.881Z,25.98
2023-09-17T18:49:28.721Z,25.80
2023-09-17T18:51:56.318Z,25.32
2023-09-17T18:54:24.365Z,25.19
2023-09-17T18:56:52.549Z,24.51
2023-09-17T18:59:20.243Z,24.17
2023-09-17T19:01:48.227Z,24.68
2023-09-17T19:04:16.095Z,24.05
2023-09-17T19:06:44.470Z,24.84
2023-09-17T19:09:12.308Z,24.66
2023-09-17T19:11:40.312Z,24.81
2023-09-17T19:14:08.442Z,24.69
2023-09-17T19:16:36.549Z,24.77
2023-09-17T19:19:04.370Z,24.64
2023-09-17T19:21:32.208Z,25.07
2023-09-17T19:24:00.910Z,24.78
2023-09-17T19:26:31.161Z,24.91
2023-09-17T19:29:00.180Z,23.89
2023-09-17T19:31:28.154Z,24.56
2023-09-17T19:33:56.061Z,24.64
2023-09-17T19:36:24.421Z,24.88
2023-09-17T19:38:54.530Z,24.80
2023-09-17T19:41:22.645Z,24.87
2023-09-17T19:43:50.761Z,25.28
2023-09-17T19:46:20.921Z,24.65
2023-09-17T19:48:49.345Z,24.63
2023-09-17T19:51:17.413Z,24.75
2023-09-17T19:53:45.262Z,24.67
2023-09-17T19:56:13.128Z,24.84
2023-09-17T19:58:40.948Z,24.29
2023-09-17T20:01:08.981Z,24.53
2023-09-17T20:03:37.036Z,23.97
2023-09-17T20:06:05.787Z,25.06
2023-09-17T20:08:33.328Z,24.73
2023-09-17T20:11:01.796Z,25.08
2023-09-17T20:13:29.411Z,24.92
2023-09-17T20:15:57.021Z,24.22
2023-09-17T20:18:24.667Z,25.18
2023-09-17T20:20:54.573Z,24.59
2023-09-17T20:23:22.691Z,24.70
2023-09-17T20:25:50.520Z,25.01
2023-09-17T20:28:18.722Z,24.53
2023-09-17T20:30:51.966Z,24.94
2023-09-17T20:33:21.439Z,24.77
2023-09-17T20:35:50.221Z,24.08
2023-09-17T20:38:18.508Z,24.13
2023-09-17T20:40:46.205Z,24.81
2023-09-17T20:43:14.233Z,25.41
2023-09-17T20:45:41.862Z,25.15
2023-09-17T20:48:09.877Z,24.80
2023-09-17T20:50:37.708Z,25.31
2023-09-17T20:53:05.234Z,25.12
2023-09-17T20:55:32.865Z,24.76
2023-09-17T20:58:00.443Z,24.73
2023-09-17T21:00:28.027Z,24.89
2023-09-17T21:02:57.834Z,24.93
2023-09-17T21:05:26.219Z,25.29
2023-09-17T21:07:53.805Z,25.30
2023-09-17T21:10:22.542Z,25.13
2023-09-17T21:12:51.305Z,24.64
2023-09-17T21:15:19.237Z,25.34
2023-09-17T21:17:46.774Z,25.15
2023-09-17T21:20:20.470Z,23.67
2023-09-17T21:22:49.434Z,24.39
2023-09-17T21:25:17.593Z,24.47
2023-09-17T21:27:45.359Z,24.79
2023-09-17T21:30:13.806Z,24.86
2023-09-17T21:32:43.875Z,24.73
2023-09-17T21:35:12.922Z,24.14
2023-09-17T21:37:40.515Z,23.67
2023-09-17T21:40:09.003Z,23.84
2023-09-17T21:42:37.198Z,24.18
2023-09-17T21:45:06.696Z,24.67
2023-09-17T21:47:34.228Z,24.38
2023-09-17T21:50:02.182Z,24.49
2023-09-17T21:52:30.705Z,24.31
2023-09-17T21:54:58.768Z,24.33
2023-09-17T21:57:26.504Z,23.38
2023-09-17T21:59:55.244Z,24.77
2023-09-17T22:02:22.957Z,24.81
2023-09-17T22:04:50.645Z,24.34
2023-09-17T22:07:18.665Z,24.74
2023-09-17T22:09:46.249Z,24.18
2023-09-17T22:12:15.434Z,24.29
2023-09-17T22:14:43.123Z,24.34
2023-09-17T22:17:11.765Z,24.69
2023-09-17T22:19:49.959Z,24.39
2023-09-17T22:22:17.646Z,24.50
2023-09-17T22:24:45.408Z,24.28
2023-09-17T22:27:15.682Z,24.37
2023-09-17T22:29:43.837Z,24.89
2023-09-17T22:32:11.983Z,24.62
2023-09-17T22:34:39.590Z,24.52
2023-09-17T22:37:07.343Z,24.48
2023-09-17T22:39:39.288Z,24.53
2023-09-17T22:42:06.854Z,24.49
2023-09-17T22:44:36.993Z,24.79
2023-09-17T22:47:07.203Z,25.10
2023-09-17T22:49:36.963Z,25.11
2023-09-17T22:52:06.319Z,24.89
2023-09-17T22:54:33.885Z,25.36
2023-09-17T22:57:01.389Z,25.14
2023-09-17T22:59:28.965Z,24.85
2023-09-17T23:01:56.755Z,25.24
2023-09-17T23:04:24.379Z,25.11
2023-09-17T23:06:51.939Z,24.76
2023-09-17T23:09:19.443Z,25.36
2023-09-17T23:11:47.085Z,25.34
2023-09-17T23:14:15.080Z,24.80
2023-09-17T23:16:42.704Z,25.23
2023-09-17T23:19:10.351Z,25.04
2023-09-17T23:21:38.268Z,24.71
2023-09-17T23:24:06.954Z,24.09
2023-09-17T23:26:35.313Z,24.85
2023-09-17T23:29:04.855Z,24.72
2023-09-17T23:31:37.012Z,24.35
2023-09-17T23:34:09.189Z,24.92
2023-09-17T23:36:36.831Z,24.79
2023-09-17T23:39:04.658Z,24.32
2023-09-17T23:41:32.548Z,24.63
2023-09-17T23:44:00.269Z,24.02
2023-09-17T23:46:27.871Z,24.24
2023-09-17T23:48:55.374Z,24.20
2023-09-17T23:51:22.957Z,24.66
2023-09-17T23:53:50.473Z,25.19
2023-09-17T23:56:18.263Z,24.99
2023-09-17T23:58:46.036Z,24.83
